Time;durP1;ratioP1;P1;durP2;ratioP2;P2;SDS_P1;SDS_P2;PMS_P1;PMS_P2;Temp;Humidity;BMP_temperature;BMP_pressure;BME280_temperature;BME280_humidity;BME280_pressure;Samples;Min_cycle;Max_cycle;Signal;HPM_P1;HPM_P2
2021/03/21 00:01:52;;;;;;;12.63;8.13;;;;;;;0.55;63.02;99529.58;1832747;77;21098;-38
2021/03/21 00:04:21;;;;;;;14.33;8.25;;;;;;;0.48;63.13;99533.16;1840814;77;21121;-38
2021/03/21 00:06:50;;;;;;;11.80;7.97;;;;;;;0.43;63.32;99528.70;1818839;76;21117;-39
2021/03/21 00:09:18;;;;;;;11.63;7.17;;;;;;;0.35;63.62;99531.98;1835498;76;21639;-38
2021/03/21 00:11:46;;;;;;;9.83;6.80;;;;;;;0.33;63.84;99529.63;1822572;78;21222;-38
2021/03/21 00:14:14;;;;;;;11.80;7.40;;;;;;;0.26;63.99;99531.05;1828829;76;21757;-39
2021/03/21 00:16:43;;;;;;;12.13;7.33;;;;;;;0.18;64.11;99529.03;1838785;77;21124;-38
2021/03/21 00:19:12;;;;;;;11.18;7.50;;;;;;;0.11;64.33;99530.70;1834906;77;22328;-38
2021/03/21 00:21:40;;;;;;;8.80;6.65;;;;;;;0.05;64.50;99531.08;1824500;77;21100;-39
2021/03/21 00:24:09;;;;;;;9.30;6.75;;;;;;;0.00;64.73;99532.70;1826879;76;21172;-39
2021/03/21 00:26:37;;;;;;;9.25;6.97;;;;;;;-0.05;64.76;99520.77;1829010;77;21157;-38
2021/03/21 00:29:06;;;;;;;11.33;7.53;;;;;;;-0.10;64.92;99518.73;1841122;76;21543;-38
2021/03/21 00:31:34;;;;;;;10.35;7.53;;;;;;;-0.11;64.94;99519.80;1772955;78;23442;-38
2021/03/21 00:34:04;;;;;;;10.35;6.75;;;;;;;-0.13;65.13;99513.95;1797981;78;21150;-38
2021/03/21 00:36:31;;;;;;;7.80;5.37;;;;;;;-0.13;65.14;99525.41;1782770;78;21166;-39
2021/03/21 00:38:59;;;;;;;10.75;7.33;;;;;;;-0.15;65.13;99519.59;1781713;79;21430;-39
2021/03/21 00:41:28;;;;;;;9.88;7.10;;;;;;;-0.19;65.21;99521.21;1757257;79;21165;-38
2021/03/21 00:43:57;;;;;;;12.10;6.87;;;;;;;-0.21;65.25;99513.27;1771888;79;22134;-39
2021/03/21 00:46:26;;;;;;;10.88;6.53;;;;;;;-0.21;65.32;99513.27;1765617;80;21663;-39
2021/03/21 00:48:54;;;;;;;10.78;7.00;;;;;;;-0.23;65.27;99505.55;1765773;79;21191;-39
2021/03/21 00:51:22;;;;;;;9.65;6.08;;;;;;;-0.27;65.45;99507.19;1768091;79;21392;-40
2021/03/21 00:53:50;;;;;;;10.48;6.95;;;;;;;-0.25;65.37;99508.25;1799917;78;21121;-40
2021/03/21 00:56:31;;;;;;;9.90;6.03;;;;;;;-0.27;65.38;99503.73;1739898;78;21361;-39
2021/03/21 00:58:59;;;;;;;8.70;6.70;;;;;;;-0.27;65.42;99503.73;1793338;78;21225;-39
2021/03/21 01:01:28;;;;;;;9.85;7.10;;;;;;;-0.28;65.42;99502.14;1784740;78;21169;-39
2021/03/21 01:03:57;;;;;;;11.22;7.08;;;;;;;-0.27;65.29;99494.41;1787107;79;21173;-40
2021/03/21 01:06:25;;;;;;;9.85;6.92;;;;;;;-0.23;65.17;99494.09;1794544;78;21619;-39
2021/03/21 01:08:58;;;;;;;10.70;6.78;;;;;;;-0.19;65.05;99497.77;1798149;78;21616;-39
2021/03/21 01:11:30;;;;;;;11.60;7.30;;;;;;;-0.20;64.96;99500.20;1763176;79;21687;-39
2021/03/21 01:13:58;;;;;;;8.83;6.67;;;;;;;-0.26;65.04;99497.34;1787382;78;21036;-39
2021/03/21 01:16:33;;;;;;;10.93;6.65;;;;;;;-0.23;65.03;99499.42;1768520;79;21599;-40
2021/03/21 01:19:02;;;;;;;9.40;6.87;;;;;;;-0.24;65.01;99501.28;1774511;79;21627;-39
2021/03/21 01:21:32;;;;;;;9.45;6.50;;;;;;;-0.24;65.02;99500.52;1770768;78;21234;-39
2021/03/21 01:24:02;;;;;;;10.63;6.87;;;;;;;-0.22;64.91;99496.48;1741254;80;21644;-39
2021/03/21 01:26:29;;;;;;;11.45;6.62;;;;;;;-0.21;64.86;99487.95;1747917;80;21169;-39
2021/03/21 01:28:59;;;;;;;11.73;6.97;;;;;;;-0.24;64.77;99494.62;1757825;79;21153;-39
2021/03/21 01:31:27;;;;;;;10.53;6.90;;;;;;;-0.32;64.97;99491.80;1782216;79;21142;-39
2021/03/21 01:33:55;;;;;;;11.70;7.75;;;;;;;-0.31;65.03;99496.06;1792178;79;21204;-39
2021/03/21 01:36:28;;;;;;;13.03;7.62;;;;;;;-0.34;65.10;99499.30;1761131;81;21153;-39
2021/03/21 01:38:57;;;;;;;10.72;6.87;;;;;;;-0.35;65.11;99491.05;1770806;79;21168;-39
2021/03/21 01:41:33;;;;;;;10.27;6.40;;;;;;;-0.38;65.18;99488.41;1781747;80;21156;-40
2021/03/21 01:44:01;;;;;;;9.38;6.60;;;;;;;-0.42;65.25;99491.92;1762719;79;21213;-39
2021/03/21 01:46:38;;;;;;;10.13;7.08;;;;;;;-0.47;65.36;99488.24;1805657;78;21166;-39
2021/03/21 01:49:19;;;;;;;9.85;7.35;;;;;;;-0.52;65.60;99492.29;1761969;78;21577;-39
2021/03/21 01:51:48;;;;;;;10.00;6.55;;;;;;;-0.52;65.63;99488.30;1740399;80;21228;-39
2021/03/21 01:54:17;;;;;;;11.12;7.17;;;;;;;-0.55;65.64;99484.09;1749150;80;21199;-40
2021/03/21 01:56:45;;;;;;;9.85;6.78;;;;;;;-0.54;65.64;99480.35;1753614;80;21141;-39
2021/03/21 01:59:30;;;;;;;8.93;6.42;;;;;;;-0.54;65.59;99481.14;1794271;78;21250;-39
2021/03/21 02:02:02;;;;;;;10.72;7.00;;;;;;;-0.58;65.56;99480.10;1804461;78;21106;-40
2021/03/21 02:04:30;;;;;;;10.18;7.00;;;;;;;-0.57;65.57;99477.70;1782976;78;21181;-39
2021/03/21 02:07:29;;;;;;;9.73;6.87;;;;;;;-0.54;65.53;99464.38;1795676;78;21607;-39
2021/03/21 02:10:33;;;;;;;10.23;7.30;;;;;;;-0.53;65.43;99465.41;1765710;78;21232;-39
2021/03/21 02:13:24;;;;;;;10.40;7.53;;;;;;;-0.58;65.50;99462.03;1755222;80;21467;-39
2021/03/21 02:16:11;;;;;;;9.70;6.47;;;;;;;-0.61;65.49;99459.37;1769783;79;21122;-39
2021/03/21 02:19:19;;;;;;;10.03;6.83;;;;;;;-0.56;65.42;99463.85;1761207;79;21596;-39
2021/03/21 02:21:55;;;;;;;8.80;6.00;;;;;;;-0.57;65.34;99456.40;1761721;79;21169;-39
2021/03/21 02:24:49;;;;;;;10.18;7.42;;;;;;;-0.66;65.55;99459.43;1767271;79;21119;-39
2021/03/21 02:27:57;;;;;;;9.65;6.60;;;;;;;-0.73;65.89;99449.67;1700884;79;21244;-39
2021/03/21 02:30:41;;;;;;;10.25;6.83;;;;;;;-0.78;66.11;99452.39;1766351;79;21157;-39
2021/03/21 02:33:16;;;;;;;9.13;6.40;;;;;;;-0.93;66.48;99437.91;1772455;79;21169;-39
2021/03/21 02:35:52;;;;;;;9.83;6.92;;;;;;;-0.87;66.88;99453.29;1764889;79;21868;-39
2021/03/21 02:38:34;;;;;;;9.70;6.85;;;;;;;-0.90;67.29;99447.44;1762994;80;21743;-39
2021/03/21 02:41:08;;;;;;;9.98;6.90;;;;;;;-0.95;67.42;99447.49;1762993;79;21247;-39
2021/03/21 02:43:41;;;;;;;10.58;7.10;;;;;;;-0.99;67.58;99443.81;1743740;80;21161;-39
2021/03/21 02:46:25;;;;;;;11.25;7.00;;;;;;;-1.13;68.12;99441.55;1773285;79;21196;-39
2021/03/21 02:49:05;;;;;;;9.43;7.08;;;;;;;-1.13;68.12;99441.55;1750243;79;21150;-39
2021/03/21 02:51:36;;;;;;;11.03;6.62;;;;;;;-1.14;68.29;99443.95;1727889;80;21168;-39
2021/03/21 02:54:17;;;;;;;9.20;6.95;;;;;;;-1.12;68.27;99437.03;1767756;79;21378;-39
2021/03/21 02:56:47;;;;;;;9.60;7.17;;;;;;;-1.16;68.44;99438.11;1784249;79;21200;-39
2021/03/21 02:59:20;;;;;;;11.43;7.20;;;;;;;-1.15;68.50;99440.23;1809360;78;21565;-39
2021/03/21 03:01:52;;;;;;;9.58;7.12;;;;;;;-1.15;68.60;99435.71;1785134;78;21129;-39
2021/03/21 03:04:28;;;;;;;11.25;6.70;;;;;;;-1.12;68.48;99429.05;1782000;79;21122;-39
2021/03/21 03:07:05;;;;;;;9.55;6.78;;;;;;;-1.07;68.28;99429.00;1766790;80;21212;-39
2021/03/21 03:09:42;;;;;;;8.48;6.47;;;;;;;-1.07;68.21;99421.02;1765696;79;21141;-39
2021/03/21 03:12:24;;;;;;;10.28;6.83;;;;;;;-1.10;68.18;99418.38;1765353;79;21657;-39
2021/03/21 03:14:52;;;;;;;9.50;6.60;;;;;;;-1.15;68.25;99412.30;1763840;79;21070;-38
2021/03/21 03:17:54;;;;;;;8.73;6.80;;;;;;;-1.15;68.22;99410.97;1764614;79;21180;-38
2021/03/21 03:20:39;;;;;;;10.58;6.70;;;;;;;-1.65;68.23;99336.48;1758277;79;22290;-39
2021/03/21 03:23:21;;;;;;;8.40;6.47;;;;;;;-1.18;68.21;99411.55;1761092;79;21915;-38
2021/03/21 03:26:11;;;;;;;12.55;7.00;;;;;;;-1.16;67.99;99414.17;1765698;79;21038;-39
2021/03/21 03:28:57;;;;;;;9.58;7.00;;;;;;;-1.20;68.22;99411.81;1744635;79;28435;-39
2021/03/21 03:31:30;;;;;;;9.45;6.47;;;;;;;-1.20;68.24;99408.36;1755063;79;21261;-39
2021/03/21 03:33:58;;;;;;;10.38;6.97;;;;;;;-1.19;68.13;99411.28;1756579;79;22342;-39
2021/03/21 03:36:26;;;;;;;10.03;7.42;;;;;;;-1.24;68.16;99406.81;1759344;79;21141;-39
2021/03/21 03:38:54;;;;;;;10.63;7.33;;;;;;;-1.23;68.10;99412.92;1771149;80;21119;-39
2021/03/21 03:42:14;;;;;;;8.38;6.42;;;;;;;-1.28;68.18;99407.65;1763384;80;21138;-38
2021/03/21 03:44:50;;;;;;;9.88;7.12;;;;;;;-1.27;68.15;99405.25;1755304;79;21222;-38
2021/03/21 03:47:31;;;;;;;9.88;7.00;;;;;;;-1.32;68.14;99402.11;1761244;80;21386;-39
2021/03/21 03:50:13;;;;;;;12.55;7.65;;;;;;;-1.35;68.37;99405.31;1774902;79;21167;-39
2021/03/21 03:52:59;;;;;;;12.00;7.40;;;;;;;-1.37;68.43;99396.30;1755130;79;21154;-39
2021/03/21 03:55:50;;;;;;;12.58;7.42;;;;;;;-1.41;68.45;99401.13;1765879;79;21415;-39
2021/03/21 03:58:45;;;;;;;10.63;7.45;;;;;;;-1.41;68.49;99401.92;1754283;80;21591;-39
2021/03/21 04:01:15;;;;;;;9.13;7.08;;;;;;;-1.40;68.42;99395.52;1753407;79;21388;-39
2021/03/21 04:03:51;;;;;;;12.05;7.70;;;;;;;-1.47;68.58;99393.73;1763116;80;21178;-40
2021/03/21 04:06:37;;;;;;;12.05;8.10;;;;;;;-1.46;68.60;99397.98;1753362;79;21193;-39
2021/03/21 04:09:34;;;;;;;11.40;7.95;;;;;;;-1.48;68.80;99394.00;1764733;79;21346;-40
2021/03/21 04:12:10;;;;;;;11.48;8.50;;;;;;;-1.51;68.80;99392.70;1735913;79;21180;-40
2021/03/21 04:14:51;;;;;;;13.08;8.03;;;;;;;-1.51;68.92;99393.23;1785008;79;21372;-40
2021/03/21 04:17:28;;;;;;;12.68;8.25;;;;;;;-1.51;68.96;99396.69;1768894;79;21314;-40
2021/03/21 04:20:25;;;;;;;13.30;8.70;;;;;;;-1.57;69.36;99401.79;1746464;79;21165;-40
2021/03/21 04:23:13;;;;;;;12.85;9.13;;;;;;;-1.56;69.59;99406.04;1780973;77;21141;-40
2021/03/21 04:25:45;;;;;;;11.85;7.80;;;;;;;-1.55;69.99;99392.98;1779533;78;21162;-40
2021/03/21 04:28:26;;;;;;;11.45;8.13;;;;;;;-1.55;69.99;99392.98;1770184;79;21250;-40
2021/03/21 04:30:56;;;;;;;11.83;8.20;;;;;;;-1.51;70.07;99396.69;1747208;80;21619;-41
2021/03/21 04:33:29;;;;;;;11.73;8.05;;;;;;;-1.49;70.28;99390.55;1748933;80;21168;-40
2021/03/21 04:36:08;;;;;;;13.03;8.75;;;;;;;-1.48;70.36;99389.48;1806713;78;21232;-41
2021/03/21 04:38:40;;;;;;;12.63;8.98;;;;;;;-1.44;70.41;99389.17;1768405;78;21174;-40
2021/03/21 04:41:11;;;;;;;12.50;8.55;;;;;;;-1.43;70.68;99391.30;1762634;79;21288;-40
2021/03/21 04:44:00;;;;;;;13.95;8.95;;;;;;;-1.39;70.58;99393.12;1803168;78;21422;-40
2021/03/21 04:46:32;;;;;;;14.18;8.98;;;;;;;-1.29;70.38;99398.08;1769503;78;21171;-41
2021/03/21 04:49:01;;;;;;;15.80;9.25;;;;;;;-1.24;70.45;99390.05;1753443;79;21679;-40
2021/03/21 04:51:39;;;;;;;12.40;8.88;;;;;;;-1.19;70.50;99388.14;1769737;79;21186;-40
2021/03/21 04:54:18;;;;;;;12.70;8.28;;;;;;;-1.15;70.67;99391.81;1767314;79;21440;-40
2021/03/21 04:56:54;;;;;;;14.05;9.43;;;;;;;-1.11;70.83;99392.84;1768104;78;21106;-40
2021/03/21 04:59:31;;;;;;;14.65;10.25;;;;;;;-1.08;70.76;99390.16;1802483;78;21173;-41
2021/03/21 05:02:24;;;;;;;13.88;9.85;;;;;;;-1.07;70.77;99390.42;1799075;79;21398;-40
2021/03/21 05:05:03;;;;;;;15.58;9.90;;;;;;;-1.00;70.78;99393.53;1775194;78;21624;-41
2021/03/21 05:07:58;;;;;;;15.18;9.78;;;;;;;-1.37;70.71;99327.16;1777865;80;23513;-41
2021/03/21 05:10:49;;;;;;;14.68;9.40;;;;;;;-0.92;70.66;99391.60;1763917;80;21179;-40
2021/03/21 05:13:39;;;;;;;13.85;9.43;;;;;;;-0.83;70.48;99391.77;1764444;78;21732;-40
2021/03/21 05:16:18;;;;;;;;;;;;;;;-0.80;70.44;99393.31;1807281;78;21145;-40
2021/03/21 05:19:12;;;;;;;16.48;9.93;;;;;;;-0.77;70.32;99389.27;1812220;78;20216;-41
2021/03/21 05:21:57;;;;;;;14.58;9.13;;;;;;;-0.79;70.49;99398.90;1802032;77;21202;-40
2021/03/21 05:24:48;;;;;;;14.50;10.55;;;;;;;-0.70;70.33;99397.19;1778025;78;21490;-41
2021/03/21 05:27:32;;;;;;;14.63;10.28;;;;;;;-0.63;70.11;99382.98;1788685;78;21628;-40
2021/03/21 05:30:27;;;;;;;15.20;10.80;;;;;;;-0.56;69.78;99380.77;1749269;81;21197;-40
2021/03/21 05:32:55;;;;;;;17.62;12.25;;;;;;;-0.51;69.54;99378.05;1754989;80;21171;-40
2021/03/21 05:35:37;;;;;;;16.75;11.93;;;;;;;-0.55;69.55;99382.36;1795072;78;21204;-40
2021/03/21 05:38:26;;;;;;;16.48;11.57;;;;;;;-0.53;69.37;99383.39;1802063;79;21146;-40
2021/03/21 05:41:29;;;;;;;17.05;11.55;;;;;;;-0.55;69.25;99379.70;1783297;78;21114;-40
2021/03/21 05:44:02;;;;;;;19.73;13.25;;;;;;;-0.50;69.25;99376.18;1771370;79;21207;-40
2021/03/21 05:46:42;;;;;;;15.78;11.85;;;;;;;-0.48;69.31;99374.80;1758129;79;21220;-40
2021/03/21 05:49:55;;;;;;;16.50;10.23;;;;;;;-0.47;69.02;99379.06;1777545;79;22355;-40
2021/03/21 05:52:59;;;;;;;21.25;13.48;;;;;;;-0.40;68.46;99376.05;1784932;79;21632;-40
2021/03/21 05:56:08;;;;;;;23.12;14.63;;;;;;;-0.39;68.40;99379.51;1768452;80;21193;-40
2021/03/21 05:58:47;;;;;;;20.62;13.70;;;;;;;-0.43;68.21;99376.61;1785967;78;21523;-40
2021/03/21 06:02:00;;;;;;;20.40;14.18;;;;;;;-0.34;68.23;99377.58;1779785;78;21169;-40
2021/03/21 06:05:13;;;;;;;22.13;15.85;;;;;;;-0.27;67.77;99375.33;1793768;78;21343;-40
2021/03/21 06:08:19;;;;;;;22.40;15.35;;;;;;;-0.27;67.67;99371.88;1789245;78;21147;-40
2021/03/21 06:11:20;;;;;;;23.07;14.70;;;;;;;-0.35;67.68;99371.99;1804746;77;21220;-41
2021/03/21 06:14:06;;;;;;;21.77;14.80;;;;;;;-0.32;67.94;99373.27;1774414;79;21131;-40
2021/03/21 06:17:16;;;;;;;25.05;17.12;;;;;;;-0.32;68.35;99373.27;1797995;78;21142;-40
2021/03/21 06:20:20;;;;;;;27.52;18.30;;;;;;;-0.26;67.95;99368.14;1800531;78;21182;-40
2021/03/21 06:23:09;;;;;;;23.80;16.12;;;;;;;-0.27;67.65;99363.34;1759727;79;21255;-40
2021/03/21 06:26:00;;;;;;;27.30;18.67;;;;;;;-0.30;67.27;99369.80;1737394;81;21246;-41
2021/03/21 06:29:20;;;;;;;26.57;17.48;;;;;;;-0.32;67.57;99354.09;1806769;78;21209;-40
2021/03/21 06:32:09;;;;;;;22.37;14.28;;;;;;;-0.70;67.56;99296.57;1800441;79;21104;-40
2021/03/21 06:35:32;;;;;;;26.52;17.60;;;;;;;-0.23;67.57;99351.56;1806221;78;22278;-41
2021/03/21 06:38:27;;;;;;;30.20;18.77;;;;;;;-0.23;67.14;99336.91;1790629;78;21622;-40
2021/03/21 06:41:09;;;;;;;27.05;18.95;;;;;;;-0.21;66.24;99336.89;1798968;78;21078;-40
2021/03/21 06:44:13;;;;;;;25.25;17.80;;;;;;;-0.17;66.42;99334.44;1807946;77;21156;-40
2021/03/21 06:47:15;;;;;;;27.48;18.73;;;;;;;-0.11;65.93;99330.08;1769259;79;21125;-40
2021/03/21 06:49:57;;;;;;;26.42;18.98;;;;;;;-0.10;65.96;99326.88;1760185;80;22188;-40
2021/03/21 06:52:56;;;;;;;26.40;18.30;;;;;;;-0.02;65.87;99327.55;1725263;79;21921;-40
2021/03/21 06:55:45;;;;;;;28.83;19.62;;;;;;;0.02;64.79;99326.41;1779834;78;21715;-40
2021/03/21 06:58:48;;;;;;;28.70;19.80;;;;;;;0.03;64.78;99313.34;1803379;78;21274;-40
2021/03/21 07:01:40;;;;;;;28.40;19.87;;;;;;;0.03;64.43;99326.13;1800531;78;21129;-40
2021/03/21 07:04:45;;;;;;;25.08;17.95;;;;;;;0.03;64.73;99306.69;1787339;78;21284;-41
2021/03/21 07:07:55;;;;;;;25.60;18.48;;;;;;;0.07;63.51;99306.34;1807956;78;21429;-40
2021/03/21 07:10:43;;;;;;;;;;;;;;;0.08;63.79;99309.27;1812374;78;21225;-40
2021/03/21 07:13:50;;;;;;;25.35;17.57;;;;;;;0.07;63.29;99291.69;1799434;78;20243;-40
2021/03/21 07:16:29;;;;;;;25.70;18.55;;;;;;;0.18;62.41;99281.91;1786238;78;21192;-40
2021/03/21 07:19:36;;;;;;;28.52;17.82;;;;;;;0.36;61.53;99304.25;1798888;78;21368;-40
2021/03/21 07:22:30;;;;;;;25.57;18.37;;;;;;;0.47;60.44;99298.20;1791700;78;21212;-40
2021/03/21 07:25:38;;;;;;;25.48;17.23;;;;;;;0.65;59.95;99285.33;1845712;76;22792;-38
2021/03/21 07:28:47;;;;;;;25.80;17.67;;;;;;;0.77;59.48;99294.98;1803608;77;21151;-38
2021/03/21 07:31:41;;;;;;;25.72;18.05;;;;;;;0.90;59.99;99280.83;1785087;79;23429;-38
2021/03/21 07:34:30;;;;;;;22.87;16.00;;;;;;;0.95;57.84;99282.61;1791878;79;21011;-38
2021/03/21 07:37:04;;;;;;;23.75;16.05;;;;;;;0.97;57.90;99266.53;1799074;79;20976;-38
2021/03/21 07:40:11;;;;;;;22.62;15.40;;;;;;;0.98;56.79;99272.13;1796241;79;20976;-38
2021/03/21 07:43:04;;;;;;;22.80;16.32;;;;;;;0.97;55.65;99266.53;1816755;79;21004;-38
2021/03/21 07:45:51;;;;;;;21.20;14.38;;;;;;;0.94;55.99;99251.12;1816625;79;21566;-38
2021/03/21 07:48:59;;;;;;;24.55;16.57;;;;;;;0.89;56.72;99244.55;1802517;77;21062;-38
2021/03/21 07:51:45;;;;;;;21.52;15.38;;;;;;;0.95;56.44;99248.70;1800576;79;21020;-38
2021/03/21 07:54:34;;;;;;;23.20;15.55;;;;;;;1.20;55.08;99242.84;1796671;79;21437;-38
2021/03/21 07:57:18;;;;;;;20.12;13.93;;;;;;;1.38;53.86;99224.28;1790135;77;21193;-38
2021/03/21 07:59:46;;;;;;;18.25;13.50;;;;;;;1.45;53.28;99230.00;1788161;79;21352;-38
2021/03/21 08:02:25;;;;;;;22.77;14.30;;;;;;;1.44;52.48;99232.42;1791977;77;21201;-38
2021/03/21 08:04:56;;;;;;;22.52;15.48;;;;;;;1.53;53.30;99215.92;1794313;77;21417;-38
2021/03/21 08:07:34;;;;;;;19.20;13.45;;;;;;;1.65;52.55;99216.94;1794137;77;21429;-38
2021/03/21 08:10:22;;;;;;;19.82;13.88;;;;;;;1.84;52.37;99210.06;1785840;79;21126;-38
2021/03/21 08:12:58;;;;;;;22.77;15.13;;;;;;;1.98;51.55;99212.69;1788826;79;21090;-38
2021/03/21 08:15:29;;;;;;;19.77;13.38;;;;;;;2.13;51.88;99203.70;1721206;82;21153;-38
2021/03/21 08:18:04;;;;;;;17.30;11.18;;;;;;;2.35;50.76;99200.73;1720352;82;21165;-38
2021/03/21 08:20:52;;;;;;;19.00;12.20;;;;;;;2.42;47.34;99201.86;1741738;82;21185;-38
2021/03/21 08:23:39;;;;;;;16.67;11.20;;;;;;;2.42;47.61;99203.77;1732097;82;21781;-38
2021/03/21 08:26:11;;;;;;;24.90;13.62;;;;;;;2.41;48.67;99192.28;1744597;81;21382;-38
2021/03/21 08:29:07;;;;;;;19.55;12.93;;;;;;;2.48;48.41;99171.20;1735662;81;21082;-38
2021/03/21 08:31:42;;;;;;;17.85;12.43;;;;;;;2.57;48.65;99173.34;1743921;81;21114;-38
2021/03/21 08:34:31;;;;;;;17.17;11.48;;;;;;;2.68;48.37;99170.37;1738325;81;21201;-38
2021/03/21 08:37:04;;;;;;;17.48;11.63;;;;;;;2.69;47.46;99175.98;1749335;81;21184;-38
2021/03/21 08:39:41;;;;;;;17.35;10.95;;;;;;;2.74;47.70;99167.25;1725200;81;21202;-38
2021/03/21 08:42:32;;;;;;;14.53;10.28;;;;;;;2.84;46.83;99154.91;1729902;81;20990;-38
2021/03/21 08:45:07;;;;;;;15.83;10.43;;;;;;;2.98;45.02;99154.77;1742382;80;21141;-38
2021/03/21 08:47:35;;;;;;;15.20;10.85;;;;;;;3.06;45.19;99149.41;1767819;80;21541;-38
2021/03/21 08:50:05;;;;;;;14.55;9.90;;;;;;;3.18;44.96;99154.70;1757003;80;21696;-38
2021/03/21 08:52:42;;;;;;;15.73;10.47;;;;;;;3.22;44.21;99144.38;1756945;81;21202;-38
2021/03/21 08:55:26;;;;;;;17.92;11.48;;;;;;;3.25;44.29;99142.39;1748079;80;21608;-38
2021/03/21 08:57:55;;;;;;;15.48;10.85;;;;;;;3.21;45.27;99143.34;1745990;80;21011;-38
2021/03/21 09:00:34;;;;;;;14.18;10.20;;;;;;;3.25;44.72;99129.55;1765829;80;21555;-38
2021/03/21 09:03:25;;;;;;;16.85;11.28;;;;;;;3.32;45.35;99129.87;1750495;80;21138;-38
2021/03/21 09:05:57;;;;;;;15.08;10.20;;;;;;;3.46;44.45;99126.46;1772196;80;22272;-38
2021/03/21 09:08:31;;;;;;;16.42;10.93;;;;;;;3.56;43.59;99127.47;1755791;80;21083;-38
2021/03/21 09:11:04;;;;;;;16.62;11.20;;;;;;;3.56;42.60;99116.75;1743536;80;21187;-38
2021/03/21 09:13:35;;;;;;;17.37;11.15;;;;;;;3.59;42.92;99111.29;1764396;80;21129;-38
2021/03/21 09:16:10;;;;;;;18.35;10.50;;;;;;;3.66;44.44;99116.96;1742238;82;21156;-38
2021/03/21 09:18:41;;;;;;;13.45;9.68;;;;;;;3.77;42.95;99116.31;1757750;80;21207;-38
2021/03/21 09:21:23;;;;;;;13.03;7.53;;;;;;;3.89;42.41;99117.75;1773214;80;21169;-39
2021/03/21 09:24:03;;;;;;;17.75;9.68;;;;;;;4.00;42.21;99104.78;1754215;81;21066;-39
2021/03/21 09:26:39;;;;;;;14.68;9.38;;;;;;;4.09;42.79;99094.80;1733099;80;21172;-38
2021/03/21 09:29:32;;;;;;;14.78;8.98;;;;;;;4.24;41.98;99097.49;1735653;81;21122;-39
2021/03/21 09:32:14;;;;;;;13.45;8.98;;;;;;;4.25;40.69;99093.70;1784483;79;21760;-38
2021/03/21 09:35:13;;;;;;;14.30;8.08;;;;;;;4.20;40.54;99084.50;1822952;78;22712;-38
2021/03/21 09:37:42;;;;;;;13.18;9.00;;;;;;;4.19;40.68;99081.58;1784639;79;21031;-38
2021/03/21 09:40:27;;;;;;;12.68;7.37;;;;;;;4.27;40.86;99070.80;1793639;79;22124;-38
2021/03/21 09:42:57;;;;;;;12.70;8.15;;;;;;;4.35;40.61;99071.87;1787189;79;20977;-38
2021/03/21 09:45:25;;;;;;;14.00;8.50;;;;;;;4.37;39.68;99076.34;1802377;79;21055;-38
2021/03/21 09:48:04;;;;;;;12.68;8.88;;;;;;;4.33;39.13;99070.84;1811494;79;21000;-38
2021/03/21 09:50:57;;;;;;;13.62;8.70;;;;;;;4.36;40.40;99076.10;1745829;82;21062;-38
2021/03/21 09:53:55;;;;;;;12.80;9.20;;;;;;;4.29;39.79;99058.41;1838410;78;22824;-39
2021/03/21 09:56:36;;;;;;;13.40;8.78;;;;;;;4.30;41.70;99062.11;1736146;82;20936;-38
2021/03/21 09:59:40;;;;;;;13.13;8.90;;;;;;;4.43;40.39;99054.91;1752482;80;22146;-38
2021/03/21 10:02:32;;;;;;;12.88;8.73;;;;;;;4.51;40.28;99066.14;1771867;80;21029;-38
2021/03/21 10:05:25;;;;;;;12.43;8.40;;;;;;;4.60;40.69;99040.02;1656616;85;21705;-38
2021/03/21 10:08:03;;;;;;;12.37;9.05;;;;;;;4.70;39.86;99040.97;1780677;79;21646;-39
2021/03/21 10:11:02;;;;;;;12.20;8.35;;;;;;;4.82;40.19;99034.88;1793673;77;21016;-39
2021/03/21 10:13:37;;;;;;;13.13;8.93;;;;;;;4.94;39.62;99034.16;1793552;79;21537;-40
2021/03/21 10:16:18;;;;;;;11.40;7.70;;;;;;;5.01;40.03;99027.68;1815348;79;21015;-39
2021/03/21 10:18:55;;;;;;;14.45;8.45;;;;;;;5.05;39.86;99013.26;1803934;79;21008;-39
2021/03/21 10:21:28;;;;;;;14.20;9.70;;;;;;;5.14;39.59;99026.60;1789174;78;21130;-40
2021/03/21 10:24:07;;;;;;;12.40;8.78;;;;;;;5.10;38.52;99016.30;1789493;79;21752;-39
2021/03/21 10:26:35;;;;;;;10.58;8.58;;;;;;;5.16;40.07;99003.67;1784772;79;22199;-39
2021/03/21 10:29:42;;;;;;;12.33;8.45;;;;;;;5.37;39.57;99010.33;1803120;77;21134;-39
2021/03/21 10:32:26;;;;;;;14.20;8.75;;;;;;;5.54;39.80;99007.44;1790627;77;21098;-39
2021/03/21 10:34:57;;;;;;;12.07;8.63;;;;;;;5.53;39.55;98999.14;1801813;78;21139;-39
2021/03/21 10:37:46;;;;;;;14.43;9.53;;;;;;;5.52;40.24;99001.59;1808249;79;21150;-40
2021/03/21 10:40:27;;;;;;;13.80;8.93;;;;;;;5.64;41.21;99001.63;1784094;79;21187;-40
2021/03/21 10:43:22;;;;;;;11.15;8.78;;;;;;;5.73;39.39;98984.58;1785454;79;21177;-39
2021/03/21 10:45:52;;;;;;;11.93;8.58;;;;;;;5.61;39.47;98982.69;1799701;77;21146;-40
2021/03/21 10:48:33;;;;;;;12.53;9.15;;;;;;;5.54;40.20;98988.62;1766639;80;21149;-40
2021/03/21 10:51:04;;;;;;;12.23;8.68;;;;;;;5.59;39.67;98972.27;1778134;80;21476;-39
2021/03/21 10:53:43;;;;;;;12.88;8.95;;;;;;;5.62;40.20;98979.65;1740258;82;21376;-40
2021/03/21 10:56:20;;;;;;;11.60;9.33;;;;;;;5.60;39.03;98983.25;1741928;79;21217;-39
2021/03/21 10:59:13;;;;;;;12.85;8.75;;;;;;;5.68;40.44;98972.15;1732754;81;21161;-39
2021/03/21 11:01:44;;;;;;;14.13;10.10;;;;;;;5.84;39.16;98974.95;1742612;81;21136;-39
2021/03/21 11:04:25;;;;;;;10.58;8.28;;;;;;;5.95;39.36;98973.42;1765545;81;21128;-40
2021/03/21 11:06:58;;;;;;;12.53;8.53;;;;;;;6.03;39.58;98964.43;1767438;81;22188;-40
2021/03/21 11:09:33;;;;;;;13.93;8.98;;;;;;;6.12;38.62;98943.55;1760895;81;21149;-40
2021/03/21 11:12:04;;;;;;;13.35;10.08;;;;;;;6.08;38.53;98956.13;1734254;82;22148;-40
2021/03/21 11:14:35;;;;;;;14.47;9.58;;;;;;;5.98;38.88;98954.69;1744860;81;21181;-40
2021/03/21 11:17:21;;;;;;;11.30;8.63;;;;;;;6.01;39.59;98946.48;1772480;79;21139;-39
2021/03/21 11:19:56;;;;;;;11.30;8.83;;;;;;;6.14;39.63;98937.28;1737277;82;21200;-40
2021/03/21 11:22:38;;;;;;;13.00;9.73;;;;;;;6.16;39.83;98937.70;1768621;81;21602;-40
2021/03/21 11:25:15;;;;;;;12.65;9.35;;;;;;;6.10;39.58;98921.02;1761322;81;21011;-39
2021/03/21 11:27:47;;;;;;;11.65;9.13;;;;;;;5.93;38.77;98916.45;1739256;81;21165;-40
2021/03/21 11:30:21;;;;;;;14.23;9.30;;;;;;;5.83;40.10;98919.02;1740916;81;21884;-40
2021/03/21 11:32:49;;;;;;;12.47;8.88;;;;;;;5.87;39.50;98925.87;1752353;79;22138;-40
2021/03/21 11:35:28;;;;;;;12.37;9.23;;;;;;;5.87;38.38;98906.48;1734703;81;21190;-40
2021/03/21 11:37:58;;;;;;;11.18;8.60;;;;;;;5.94;40.03;98899.98;1713277;82;21597;-39
2021/03/21 11:42:14;;;;;;;15.45;9.58;;;;;;;6.35;39.51;98888.08;1825716;77;22485;-39
2021/03/21 11:44:44;;;;;;;11.70;8.68;;;;;;;6.43;38.90;98891.20;1804300;78;21525;-39
2021/03/21 11:47:30;;;;;;;11.90;9.00;;;;;;;6.43;37.88;98883.69;1804926;79;21577;-39
2021/03/21 11:50:00;;;;;;;13.03;9.10;;;;;;;6.39;38.97;98875.48;1791782;79;21047;-39
2021/03/21 11:52:28;;;;;;;11.97;9.23;;;;;;;6.48;38.71;98880.75;1798103;78;20999;-38
2021/03/21 11:54:58;;;;;;;14.00;9.15;;;;;;;6.66;38.15;98874.48;1804302;78;21020;-39
2021/03/21 11:57:43;;;;;;;;;;;;;;;6.81;37.06;98869.12;1757313;79;21004;-39
2021/03/21 12:00:38;;;;;;;11.73;7.85;;;;;;;6.92;37.38;98878.24;1804676;79;22125;-39
2021/03/21 12:03:19;;;;;;;12.15;8.50;;;;;;;6.86;37.40;98866.73;1782235;78;20945;-39
2021/03/21 12:06:22;;;;;;;12.40;8.65;;;;;;;6.87;37.42;98859.63;1795311;79;21012;-39
2021/03/21 12:08:51;;;;;;;13.45;8.23;;;;;;;6.73;37.32;98867.95;1814001;79;21031;-39
2021/03/21 12:11:30;;;;;;;10.43;8.03;;;;;;;6.61;37.44;98850.48;1808230;79;21558;-39
2021/03/21 12:14:22;;;;;;;11.68;8.33;;;;;;;6.79;38.22;98849.03;1799603;79;21162;-39
2021/03/21 12:16:52;;;;;;;13.48;8.48;;;;;;;7.06;37.14;98854.14;1807949;79;21020;-39
2021/03/21 12:19:34;;;;;;;11.83;8.55;;;;;;;7.16;36.42;98846.32;1804483;79;21594;-39
2021/03/21 12:22:05;;;;;;;11.20;8.13;;;;;;;7.12;36.55;98835.99;1792565;78;21573;-39
2021/03/21 12:24:33;;;;;;;13.88;8.65;;;;;;;7.19;36.76;98838.09;1802780;79;21115;-39
2021/03/21 12:27:08;;;;;;;11.25;8.80;;;;;;;7.33;36.29;98833.81;1808260;78;21373;-39
2021/03/21 12:29:42;;;;;;;12.28;8.95;;;;;;;7.58;36.27;98818.75;1804936;78;21189;-39
2021/03/21 12:32:37;;;;;;;11.83;8.70;;;;;;;7.72;36.61;98838.73;1789312;78;21170;-39
2021/03/21 12:35:23;;;;;;;11.68;7.92;;;;;;;7.63;36.66;98844.11;1811515;78;21613;-39
2021/03/21 12:38:01;;;;;;;10.40;8.20;;;;;;;7.58;38.00;98824.94;1793525;79;21131;-39